Time;durP1;ratioP1;P1;durP2;ratioP2;P2;SDS_P1;SDS_P2;PMS_P1;PMS_P2;Temp;Humidity;BMP_temperature;BMP_pressure;BME280_temperature;BME280_humidity;BME280_pressure;Samples;Min_cycle;Max_cycle;Signal;HPM_P1;HPM_P2
2022/12/30 00:00:55;;;;;;;11.35;1.77;;;6.70;99.90;;;;;;5045531;28;20052;-72
2022/12/30 00:03:22;;;;;;;12.25;2.50;;;6.70;99.90;;;;;;5046640;28;20056;-72
2022/12/30 00:05:48;;;;;;;22.17;3.53;;;6.70;99.90;;;;;;5051326;28;20100;-72
2022/12/30 00:10:58;;;;;;;15.18;2.65;;;6.70;99.90;;;;;;5041765;28;20108;-73
2022/12/30 00:33:07;;;;;;;9.00;1.52;;;6.60;99.90;;;;;;5055447;28;20040;-73
2022/12/30 00:35:35;;;;;;;20.00;2.50;;;6.60;99.90;;;;;;5055165;28;20035;-72
2022/12/30 00:38:00;;;;;;;12.85;1.90;;;6.50;99.90;;;;;;5055385;28;20029;-72
2022/12/30 00:40:26;;;;;;;10.82;1.85;;;6.50;99.90;;;;;;5055886;28;20047;-73
2022/12/30 00:43:09;;;;;;;12.73;1.98;;;6.50;99.90;;;;;;5054438;28;20033;-73
2022/12/30 00:45:41;;;;;;;7.30;2.25;;;6.50;99.90;;;;;;5056076;28;20040;-72
2022/12/30 00:56:21;;;;;;;21.10;2.33;;;6.50;99.90;;;;;;5060510;28;20149;-73
2022/12/30 00:58:47;;;;;;;8.23;1.48;;;6.60;99.90;;;;;;5063105;28;20031;-73
2022/12/30 01:01:12;;;;;;;11.80;1.98;;;6.50;99.90;;;;;;5047349;28;20026;-73
2022/12/30 01:03:38;;;;;;;12.88;2.30;;;6.60;99.90;;;;;;5050392;28;20025;-72
2022/12/30 01:06:08;;;;;;;9.48;2.08;;;6.60;99.90;;;;;;5054607;28;20020;-72
2022/12/30 01:08:34;;;;;;;16.65;2.70;;;6.60;99.90;;;;;;5056280;28;20040;-71
2022/12/30 01:11:07;;;;;;;15.13;2.03;;;6.60;99.90;;;;;;5055671;28;20021;-72
2022/12/30 01:13:33;;;;;;;5.53;2.20;;;6.60;99.90;;;;;;5055106;28;20060;-72
2022/12/30 01:16:06;;;;;;;16.55;2.47;;;6.60;99.90;;;;;;5053856;28;20469;-72
2022/12/30 01:18:32;;;;;;;15.00;2.42;;;6.60;99.90;;;;;;5054954;28;20037;-72
2022/12/30 01:21:02;;;;;;;9.43;1.55;;;6.60;99.90;;;;;;5054439;28;20040;-72
2022/12/30 01:23:27;;;;;;;16.55;3.55;;;6.60;99.90;;;;;;5054016;28;20112;-72
2022/12/30 01:25:53;;;;;;;16.83;2.35;;;6.50;99.90;;;;;;5036984;28;20128;-71
2022/12/30 01:28:19;;;;;;;17.05;2.33;;;6.50;99.90;;;;;;5043711;28;20020;-72
2022/12/30 01:30:44;;;;;;;19.90;2.97;;;6.50;99.90;;;;;;5054001;28;20112;-71
2022/12/30 01:33:10;;;;;;;14.10;2.47;;;6.50;99.90;;;;;;5054745;28;20047;-73
2022/12/30 01:35:35;;;;;;;9.13;2.45;;;6.50;99.90;;;;;;5055391;28;20369;-72
2022/12/30 01:38:01;;;;;;;11.02;1.80;;;6.40;99.90;;;;;;5053640;28;20048;-72
2022/12/30 01:40:26;;;;;;;15.57;2.92;;;6.40;99.90;;;;;;5054324;28;20107;-72
2022/12/30 01:42:52;;;;;;;8.52;2.03;;;6.40;99.90;;;;;;5054205;28;20028;-73
2022/12/30 01:45:22;;;;;;;19.13;2.80;;;6.40;99.90;;;;;;5053624;28;20055;-73
2022/12/30 01:47:55;;;;;;;12.13;2.47;;;6.30;99.90;;;;;;5054448;28;20047;-72
2022/12/30 01:50:39;;;;;;;10.40;2.50;;;6.40;99.90;;;;;;5040410;28;20048;-73
2022/12/30 01:53:09;;;;;;;10.93;2.35;;;6.30;99.90;;;;;;5053646;28;20102;-72
2022/12/30 01:55:37;;;;;;;12.55;2.65;;;6.20;99.90;;;;;;5054223;28;20063;-72
2022/12/30 01:58:07;;;;;;;15.30;2.45;;;6.20;99.90;;;;;;5053134;28;20032;-72
2022/12/30 02:00:33;;;;;;;16.02;3.50;;;6.20;99.90;;;;;;5054011;28;20025;-72
2022/12/30 02:02:59;;;;;;;17.15;2.53;;;6.20;99.90;;;;;;5054097;28;20087;-73
2022/12/30 02:05:28;;;;;;;17.73;2.85;;;6.20;99.90;;;;;;5053440;28;20354;-72
2022/12/30 02:08:10;;;;;;;18.75;3.88;;;6.20;99.90;;;;;;5053619;28;20041;-72
2022/12/30 02:10:38;;;;;;;18.83;2.67;;;6.20;99.90;;;;;;5051160;28;20025;-72
2022/12/30 02:13:04;;;;;;;16.38;3.25;;;6.20;99.90;;;;;;5051738;28;20029;-73
2022/12/30 02:16:01;;;;;;;17.13;3.28;;;6.30;99.90;;;;;;5053340;28;20065;-74
2022/12/30 02:18:44;;;;;;;13.13;2.80;;;6.30;99.90;;;;;;5044994;28;20147;-72
2022/12/30 02:21:34;;;;;;;12.50;3.55;;;6.30;99.90;;;;;;5053008;28;20029;-72
2022/12/30 02:24:15;;;;;;;17.67;2.85;;;6.20;99.90;;;;;;5053292;28;20025;-72
2022/12/30 02:27:05;;;;;;;11.40;2.67;;;6.20;99.90;;;;;;5052978;28;20037;-73
2022/12/30 02:29:59;;;;;;;13.90;2.85;;;6.20;99.90;;;;;;5054056;28;20052;-72
2022/12/30 02:32:39;;;;;;;14.63;3.85;;;6.10;99.90;;;;;;5053187;28;20028;-72
2022/12/30 02:35:36;;;;;;;9.57;2.30;;;6.00;99.90;;;;;;5052870;28;20040;-72
2022/12/30 02:38:17;;;;;;;14.35;3.47;;;6.00;99.90;;;;;;5053235;28;20032;-73
2022/12/30 02:44:39;;;;;;;17.70;2.95;;;6.00;99.90;;;;;;5047070;28;20086;-72
2022/12/30 02:47:26;;;;;;;12.48;2.50;;;6.00;99.90;;;;;;5055525;28;20032;-72
2022/12/30 02:52:44;;;;;;;10.45;3.03;;;6.00;99.90;;;;;;5057298;28;20099;-72
2022/12/30 02:55:10;;;;;;;12.77;2.63;;;6.00;99.90;;;;;;5054312;28;20051;-72
2022/12/30 02:57:35;;;;;;;23.35;3.50;;;5.90;99.90;;;;;;5056328;28;20033;-73
2022/12/30 03:06:27;;;;;;;16.52;3.47;;;6.00;99.90;;;;;;5036126;28;20088;-72
2022/12/30 03:09:39;;;;;;;16.98;3.97;;;6.10;99.90;;;;;;5040704;28;20033;-73
2022/12/30 03:12:28;;;;;;;15.80;3.58;;;6.20;99.90;;;;;;5046095;28;20040;-72
2022/12/30 03:15:07;;;;;;;22.35;3.83;;;6.30;99.90;;;;;;5047713;28;20064;-73
2022/12/30 03:17:36;;;;;;;13.52;3.20;;;6.30;99.90;;;;;;5052060;28;20029;-71
2022/12/30 03:20:07;;;;;;;18.52;3.83;;;6.40;99.90;;;;;;5050809;28;20029;-72
2022/12/30 03:28:07;;;;;;;12.85;3.55;;;6.40;99.90;;;;;;5050956;28;20067;-71
2022/12/30 03:30:37;;;;;;;23.27;5.13;;;6.40;99.90;;;;;;5049900;28;20079;-72
2022/12/30 03:33:03;;;;;;;16.70;3.75;;;6.50;99.90;;;;;;5050522;28;20087;-72
2022/12/30 03:35:33;;;;;;;10.57;3.00;;;6.40;99.90;;;;;;5050570;28;20440;-72
2022/12/30 03:38:00;;;;;;;19.75;3.88;;;6.40;99.90;;;;;;5040910;28;20117;-71
2022/12/30 03:40:31;;;;;;;17.45;3.42;;;6.40;99.90;;;;;;5046163;28;20061;-72
2022/12/30 03:42:58;;;;;;;15.23;2.97;;;6.40;99.90;;;;;;5052681;28;20036;-72
2022/12/30 03:45:24;;;;;;;15.07;2.75;;;6.30;99.90;;;;;;5052544;28;20056;-72
2022/12/30 03:47:50;;;;;;;12.45;2.50;;;6.20;99.90;;;;;;5052454;28;20024;-71
2022/12/30 03:50:15;;;;;;;16.80;3.05;;;6.10;99.90;;;;;;5052637;28;20112;-72
2022/12/30 03:52:41;;;;;;;16.35;3.17;;;6.00;99.90;;;;;;5051685;28;20033;-72
2022/12/30 03:55:07;;;;;;;12.75;2.97;;;6.00;99.90;;;;;;5052248;28;20458;-71
2022/12/30 03:57:33;;;;;;;16.33;2.22;;;5.90;99.90;;;;;;5051428;28;20488;-73
2022/12/30 03:59:59;;;;;;;20.52;3.45;;;5.90;99.90;;;;;;5052285;28;20052;-71
2022/12/30 04:02:25;;;;;;;12.38;2.55;;;5.80;99.90;;;;;;5052708;28;20143;-71
2022/12/30 04:04:51;;;;;;;10.52;2.67;;;5.80;99.90;;;;;;5051518;28;20021;-72
2022/12/30 04:07:17;;;;;;;14.73;2.72;;;5.70;99.90;;;;;;5052496;28;20370;-72
2022/12/30 04:09:42;;;;;;;13.85;2.63;;;5.70;99.90;;;;;;5052308;28;20028;-72
2022/12/30 04:12:08;;;;;;;17.75;2.67;;;5.70;99.90;;;;;;5041372;28;20029;-72
2022/12/30 04:14:34;;;;;;;12.73;2.75;;;5.60;99.90;;;;;;5047335;28;20025;-72
2022/12/30 04:16:59;;;;;;;11.27;2.80;;;5.60;99.90;;;;;;5051774;28;20028;-72
2022/12/30 04:19:25;;;;;;;13.27;2.35;;;5.50;99.90;;;;;;5051676;28;20458;-72
2022/12/30 04:21:51;;;;;;;10.52;2.63;;;5.50;99.90;;;;;;5052315;28;20028;-72
2022/12/30 04:24:17;;;;;;;18.52;2.42;;;5.50;99.90;;;;;;5053496;28;20494;-72
2022/12/30 04:26:43;;;;;;;17.83;2.95;;;5.40;99.90;;;;;;5052786;28;20049;-72
2022/12/30 04:29:08;;;;;;;7.97;2.53;;;5.40;99.90;;;;;;5054593;28;20025;-72
2022/12/30 04:31:34;;;;;;;16.50;2.97;;;5.30;99.90;;;;;;5053333;28;20098;-71
2022/12/30 04:34:02;;;;;;;15.43;2.65;;;5.20;99.90;;;;;;5052467;28;20036;-72
2022/12/30 04:36:28;;;;;;;13.60;2.70;;;5.30;99.90;;;;;;5054538;28;20103;-71
2022/12/30 04:38:54;;;;;;;11.18;2.65;;;5.30;99.90;;;;;;5053812;28;20040;-73
2022/12/30 04:41:20;;;;;;;10.07;2.58;;;5.30;99.90;;;;;;5052316;28;20017;-72
2022/12/30 04:43:46;;;;;;;11.43;3.10;;;5.20;99.90;;;;;;5051898;28;20100;-71
2022/12/30 04:46:12;;;;;;;14.23;3.15;;;5.20;99.90;;;;;;5051888;28;20377;-72
2022/12/30 04:48:38;;;;;;;16.45;3.47;;;5.20;99.90;;;;;;5051517;28;20025;-72
2022/12/30 04:51:04;;;;;;;19.73;3.03;;;5.20;99.90;;;;;;5052219;28;20028;-73
2022/12/30 04:53:30;;;;;;;12.98;2.42;;;5.20;99.90;;;;;;5052034;28;20033;-72
2022/12/30 04:55:56;;;;;;;14.27;3.05;;;5.30;99.90;;;;;;5050984;28;20372;-73
2022/12/30 04:58:23;;;;;;;12.85;4.15;;;5.20;99.90;;;;;;5051571;28;20115;-72
2022/12/30 05:00:49;;;;;;;17.73;3.08;;;5.30;99.90;;;;;;5050660;28;20472;-72
2022/12/30 05:03:15;;;;;;;16.15;3.45;;;5.30;99.90;;;;;;5051702;28;20021;-72
2022/12/30 05:05:41;;;;;;;12.48;2.70;;;5.20;99.90;;;;;;5053968;28;20040;-73
2022/12/30 05:08:06;;;;;;;12.98;2.95;;;5.20;99.90;;;;;;5047456;28;20056;-71
2022/12/30 05:10:36;;;;;;;18.55;2.95;;;5.20;99.90;;;;;;5048798;28;20613;-71
2022/12/30 05:13:02;;;;;;;13.45;2.67;;;5.20;99.90;;;;;;5046768;28;20041;-71
2022/12/30 05:15:28;;;;;;;18.33;3.10;;;5.20;99.90;;;;;;5059303;28;20071;-73
2022/12/30 05:17:53;;;;;;;14.10;2.83;;;5.20;99.90;;;;;;5054962;28;20029;-72
2022/12/30 05:20:19;;;;;;;20.80;3.47;;;5.20;99.90;;;;;;5055181;28;20042;-71
2022/12/30 05:22:48;;;;;;;14.82;3.08;;;5.20;99.90;;;;;;5054402;28;20032;-72
2022/12/30 05:27:57;;;;;;;8.05;2.10;;;5.20;99.90;;;;;;5054616;28;20136;-71
2022/12/30 05:30:23;;;;;;;18.90;2.72;;;5.30;99.90;;;;;;5052922;28;20108;-72
2022/12/30 05:32:49;;;;;;;13.10;2.63;;;5.30;99.90;;;;;;5043350;28;20049;-72
2022/12/30 05:35:15;;;;;;;16.50;4.07;;;5.30;99.90;;;;;;5033290;28;20500;-72
2022/12/30 05:37:41;;;;;;;15.52;2.83;;;5.30;99.90;;;;;;5032637;28;20462;-72
2022/12/30 05:40:08;;;;;;;16.83;3.15;;;5.30;99.90;;;;;;5033440;28;20025;-72
2022/12/30 05:42:34;;;;;;;12.10;2.33;;;5.30;99.90;;;;;;5033532;28;20059;-72
2022/12/30 05:45:00;;;;;;;12.88;3.20;;;5.20;99.90;;;;;;5032647;28;20065;-72
2022/12/30 05:47:25;;;;;;;18.88;2.83;;;5.20;99.90;;;;;;5033273;28;20017;-72
2022/12/30 05:49:51;;;;;;;16.50;2.83;;;5.10;99.90;;;;;;5033232;28;20034;-72
2022/12/30 05:52:17;;;;;;;15.60;3.00;;;5.10;99.90;;;;;;5035347;28;20495;-72
2022/12/30 05:54:43;;;;;;;12.98;2.80;;;5.10;99.90;;;;;;5034752;28;20033;-72
2022/12/30 05:57:12;;;;;;;19.67;4.10;;;5.10;99.90;;;;;;5034172;28;20144;-71
2022/12/30 05:59:40;;;;;;;20.38;2.90;;;5.10;99.90;;;;;;5034145;28;20044;-72
2022/12/30 06:02:06;;;;;;;12.20;3.58;;;5.10;99.90;;;;;;5034210;28;20029;-73
2022/12/30 06:04:31;;;;;;;11.93;2.63;;;5.00;99.90;;;;;;5033998;28;20033;-73
2022/12/30 06:06:57;;;;;;;18.02;2.85;;;5.00;99.90;;;;;;5034169;28;20022;-72
2022/12/30 06:09:23;;;;;;;21.65;4.25;;;5.00;99.90;;;;;;5034301;28;20041;-72
2022/12/30 06:11:51;;;;;;;8.82;2.65;;;5.00;99.90;;;;;;5032537;28;20036;-71
2022/12/30 06:14:17;;;;;;;12.73;3.42;;;5.10;99.90;;;;;;5057058;28;20033;-72
2022/12/30 06:16:43;;;;;;;13.88;2.35;;;5.10;99.90;;;;;;5034608;28;20079;-72
2022/12/30 06:19:09;;;;;;;13.82;2.47;;;5.00;99.90;;;;;;5046063;28;20025;-72
2022/12/30 06:21:34;;;;;;;15.93;4.75;;;5.00;99.90;;;;;;5048931;28;20458;-72
2022/12/30 06:24:00;;;;;;;12.43;3.00;;;5.00;99.90;;;;;;5048835;28;20116;-72
2022/12/30 06:26:26;;;;;;;11.32;3.05;;;5.00;99.90;;;;;;5047879;28;20072;-71
2022/12/30 06:28:52;;;;;;;11.50;2.70;;;5.00;99.90;;;;;;5047455;28;20029;-71
2022/12/30 06:31:17;;;;;;;17.98;3.03;;;5.00;99.90;;;;;;5048831;28;20033;-72
2022/12/30 06:33:43;;;;;;;13.57;3.03;;;5.00;99.90;;;;;;5033909;28;20067;-72
2022/12/30 06:36:09;;;;;;;12.10;3.03;;;5.00;99.90;;;;;;5033715;28;20177;-70
2022/12/30 06:38:35;;;;;;;9.63;2.38;;;5.00;99.90;;;;;;5033436;28;20496;-71
2022/12/30 06:41:01;;;;;;;17.52;2.95;;;5.00;99.90;;;;;;5032457;28;20045;-71
2022/12/30 06:43:26;;;;;;;13.32;3.13;;;5.10;99.90;;;;;;5033582;28;20033;-72
2022/12/30 06:45:52;;;;;;;16.38;3.45;;;5.00;99.90;;;;;;5035087;28;20017;-72
2022/12/30 06:48:17;;;;;;;11.98;3.25;;;4.90;99.90;;;;;;5033154;28;20045;-72
2022/12/30 06:50:43;;;;;;;12.10;3.00;;;5.00;99.90;;;;;;5033331;28;20018;-72
2022/12/30 06:53:08;;;;;;;12.02;3.35;;;5.00;99.90;;;;;;5037405;28;20110;-73
2022/12/30 06:55:34;;;;;;;13.45;2.83;;;5.00;99.90;;;;;;5038279;28;20391;-73
2022/12/30 06:58:04;;;;;;;18.42;4.25;;;5.00;99.90;;;;;;5032879;28;20030;-72
2022/12/30 07:00:30;;;;;;;12.82;2.88;;;5.00;99.90;;;;;;5047933;28;20052;-71
2022/12/30 07:02:56;;;;;;;18.35;3.22;;;5.00;99.90;;;;;;5052799;28;20491;-72
2022/12/30 07:05:21;;;;;;;17.02;3.40;;;5.00;99.90;;;;;;5053272;28;20063;-74
2022/12/30 07:07:47;;;;;;;16.33;3.30;;;5.00;99.90;;;;;;5052223;28;20090;-72
2022/12/30 07:10:12;;;;;;;16.80;3.60;;;5.00;99.90;;;;;;5052253;28;20021;-73
2022/12/30 07:12:38;;;;;;;18.02;3.35;;;5.00;99.90;;;;;;5037854;28;20048;-73
2022/12/30 07:15:04;;;;;;;15.02;3.03;;;5.00;99.90;;;;;;5052849;28;20025;-72
2022/12/30 07:17:30;;;;;;;19.23;3.45;;;5.00;99.90;;;;;;5054723;28;20020;-73
2022/12/30 07:19:55;;;;;;;23.60;3.78;;;4.90;99.90;;;;;;5050987;28;20461;-74
2022/12/30 07:22:21;;;;;;;19.17;3.17;;;4.90;99.90;;;;;;5051821;28;20048;-76
2022/12/30 07:24:47;;;;;;;19.73;3.63;;;4.90;99.90;;;;;;5051496;28;20141;-75
2022/12/30 07:27:13;;;;;;;13.02;2.90;;;4.90;99.90;;;;;;5043300;28;20048;-74
2022/12/30 07:29:38;;;;;;;15.68;3.13;;;4.90;99.90;;;;;;5043082;28;20382;-74
2022/12/30 07:32:06;;;;;;;19.25;3.95;;;4.80;99.90;;;;;;5038711;28;20021;-75
2022/12/30 07:34:34;;;;;;;13.73;3.40;;;4.90;99.90;;;;;;5046729;28;20041;-71
2022/12/30 07:37:00;;;;;;;20.45;3.38;;;4.90;99.90;;;;;;5047129;28;20100;-72
2022/12/30 07:39:26;;;;;;;20.67;3.80;;;4.90;99.90;;;;;;5049905;28;20041;-74
2022/12/30 07:41:51;;;;;;;14.15;2.67;;;4.80;99.90;;;;;;5040137;28;20029;-73
2022/12/30 07:44:17;;;;;;;16.27;3.38;;;4.90;99.90;;;;;;5036473;28;20028;-75
2022/12/30 07:46:42;;;;;;;11.50;3.20;;;4.90;99.90;;;;;;5041773;28;20049;-74
2022/12/30 07:49:08;;;;;;;13.60;3.25;;;4.90;99.90;;;;;;5045686;28;20071;-74
2022/12/30 07:51:34;;;;;;;19.55;5.15;;;4.90;99.90;;;;;;5048907;28;20482;-73
2022/12/30 07:54:00;;;;;;;9.60;3.33;;;5.00;99.90;;;;;;5048649;28;20049;-74
2022/12/30 07:56:25;;;;;;;12.27;3.30;;;5.00;99.90;;;;;;5050682;28;20033;-75
2022/12/30 07:58:54;;;;;;;19.55;3.72;;;5.00;99.90;;;;;;5044653;28;20041;-73
2022/12/30 08:01:20;;;;;;;16.60;3.30;;;5.10;99.90;;;;;;5045602;28;20017;-74
2022/12/30 08:03:46;;;;;;;13.98;3.17;;;5.20;99.90;;;;;;5046322;28;20108;-74
2022/12/30 08:06:14;;;;;;;11.57;3.17;;;5.30;99.90;;;;;;5050872;28;20025;-74
2022/12/30 08:08:41;;;;;;;13.45;3.60;;;5.40;99.90;;;;;;5053961;28;20112;-74
2022/12/30 08:11:08;;;;;;;11.32;3.20;;;5.40;99.90;;;;;;5051513;28;20017;-74
2022/12/30 08:13:36;;;;;;;8.73;3.13;;;5.40;99.90;;;;;;5048601;28;20075;-76
2022/12/30 08:16:09;;;;;;;13.23;3.40;;;5.50;99.90;;;;;;5050581;28;20114;-76
2022/12/30 08:18:36;;;;;;;9.43;4.05;;;5.60;99.90;;;;;;5043547;28;20028;-77
2022/12/30 08:21:09;;;;;;;11.18;3.00;;;5.60;99.90;;;;;;5041979;28;20028;-77
2022/12/30 08:23:34;;;;;;;12.60;4.22;;;5.70;99.90;;;;;;5041018;28;20469;-77
2022/12/30 08:26:08;;;;;;;14.35;3.08;;;5.70;99.90;;;;;;5039170;28;20048;-77
2022/12/30 08:28:34;;;;;;;11.00;3.58;;;5.80;99.90;;;;;;5047939;28;20021;-76
2022/12/30 08:31:08;;;;;;;12.18;3.72;;;5.90;99.90;;;;;;5047784;28;20017;-77
2022/12/30 08:33:37;;;;;;;11.07;3.30;;;5.90;99.90;;;;;;5051833;28;20059;-76
2022/12/30 08:36:05;;;;;;;7.95;3.17;;;5.50;99.90;;;;;;5042583;28;20031;-77
2022/12/30 08:38:32;;;;;;;10.48;3.28;;;5.90;99.90;;;;;;5039339;28;20029;-74
2022/12/30 08:41:13;;;;;;;11.50;2.85;;;5.90;99.90;;;;;;5048451;28;20633;-75
2022/12/30 08:43:40;;;;;;;7.53;2.83;;;5.90;99.90;;;;;;5044066;28;20029;-76
2022/12/30 08:46:06;;;;;;;12.75;2.80;;;6.00;99.90;;;;;;5052066;28;20635;-76
2022/12/30 08:48:32;;;;;;;8.15;2.90;;;6.10;99.90;;;;;;5043872;28;20037;-74
2022/12/30 08:50:59;;;;;;;16.80;3.40;;;6.10;99.90;;;;;;5043634;28;20044;-77
2022/12/30 08:53:25;;;;;;;17.95;3.58;;;6.60;99.90;;;;;;5051898;28;20401;-81
2022/12/30 08:56:04;;;;;;;8.88;3.10;;;6.30;99.90;;;;;;5036976;28;20024;-74
2022/12/30 08:58:30;;;;;;;14.50;3.60;;;6.30;99.90;;;;;;5036149;28;20474;-72
2022/12/30 09:00:56;;;;;;;9.38;2.72;;;6.40;99.90;;;;;;5035320;28;20049;-74
2022/12/30 09:03:22;;;;;;;10.25;3.17;;;6.40;99.90;;;;;;5037403;28;20038;-74
2022/12/30 09:05:54;;;;;;;11.52;3.65;;;6.40;99.90;;;;;;5044334;28;20051;-73
2022/12/30 09:08:20;;;;;;;12.18;3.05;;;6.40;99.90;;;;;;5033540;28;20018;-73
2022/12/30 09:11:10;;;;;;;9.10;3.60;;;6.50;99.90;;;;;;5035322;28;20041;-72
2022/12/30 09:13:37;;;;;;;16.20;3.30;;;6.40;99.90;;;;;;5042047;28;20029;-74
2022/12/30 09:16:04;;;;;;;11.55;3.13;;;6.50;99.90;;;;;;5049808;28;20132;-73
2022/12/30 09:18:30;;;;;;;12.32;3.10;;;6.50;99.90;;;;;;5046336;28;20025;-75
2022/12/30 09:20:56;;;;;;;9.23;3.50;;;6.40;99.90;;;;;;5048822;28;20032;-75
2022/12/30 09:23:21;;;;;;;8.25;3.00;;;6.50;99.90;;;;;;5046753;28;20037;-75
2022/12/30 09:25:48;;;;;;;6.53;2.25;;;6.50;99.90;;;;;;5049992;28;20025;-76
2022/12/30 09:28:14;;;;;;;12.73;3.00;;;6.50;99.90;;;;;;5047705;28;20501;-74
2022/12/30 09:30:40;;;;;;;6.30;2.45;;;6.50;99.90;;;;;;5041620;28;20027;-77
2022/12/30 09:33:06;;;;;;;11.15;2.78;;;6.60;99.90;;;;;;5040267;28;20060;-73
2022/12/30 09:35:33;;;;;;;9.75;2.40;;;6.60;99.90;;;;;;5056579;28;20033;-74
2022/12/30 09:37:59;;;;;;;10.13;2.75;;;6.60;99.90;;;;;;5051072;28;20029;-74
2022/12/30 09:40:54;;;;;;;5.75;2.10;;;6.70;99.90;;;;;;5047596;28;20584;-74
2022/12/30 09:43:44;;;;;;;5.75;1.95;;;6.70;99.90;;;;;;5042847;28;20022;-76
2022/12/30 09:46:43;;;;;;;9.67;2.23;;;6.80;99.90;;;;;;5036707;28;20036;-75
2022/12/30 09:49:25;;;;;;;10.00;2.28;;;6.80;99.90;;;;;;5049897;28;20017;-76
2022/12/30 09:52:03;;;;;;;6.70;2.33;;;6.90;99.90;;;;;;5049204;28;20103;-76
2022/12/30 09:54:31;;;;;;;8.13;2.72;;;7.00;99.90;;;;;;5050222;28;20105;-75
2022/12/30 09:57:30;;;;;;;6.50;2.50;;;7.00;99.90;;;;;;5044122;28;20014;-75
2022/12/30 09:59:56;;;;;;;6.47;1.75;;;7.00;99.90;;;;;;5049984;28;20029;-75
2022/12/30 10:02:27;;;;;;;5.47;1.65;;;7.10;99.90;;;;;;5050652;28;20023;-76
2022/12/30 10:04:54;;;;;;;4.90;2.50;;;7.10;99.90;;;;;;5047818;28;20024;-77
2022/12/30 10:07:34;;;;;;;4.57;1.60;;;7.10;99.90;;;;;;5051637;28;20119;-76
2022/12/30 10:10:09;;;;;;;7.20;1.80;;;7.20;99.90;;;;;;5046331;28;20104;-74
2022/12/30 10:12:44;;;;;;;6.65;2.13;;;7.20;99.90;;;;;;5043461;28;20041;-73
2022/12/30 10:15:19;;;;;;;11.13;2.75;;;7.30;99.90;;;;;;5048351;28;20186;-74
2022/12/30 10:17:53;;;;;;;5.53;1.90;;;7.30;99.90;;;;;;5043687;28;20017;-75
2022/12/30 10:20:47;;;;;;;9.35;2.25;;;7.30;99.90;;;;;;5047130;28;20154;-75
2022/12/30 10:23:34;;;;;;;6.13;1.92;;;7.40;99.90;;;;;;5033041;28;20024;-74
2022/12/30 10:26:18;;;;;;;4.82;1.48;;;7.40;99.90;;;;;;5051356;28;20045;-74
2022/12/30 10:28:56;;;;;;;4.88;1.85;;;7.50;99.90;;;;;;5049699;28;20031;-73
2022/12/30 10:31:24;;;;;;;7.63;2.03;;;7.50;99.90;;;;;;5046339;28;20035;-75
2022/12/30 10:33:54;;;;;;;6.30;2.20;;;7.60;99.90;;;;;;5048299;28;20458;-75
2022/12/30 10:36:33;;;;;;;5.13;1.90;;;7.50;99.90;;;;;;5049291;28;20021;-75
2022/12/30 10:39:11;;;;;;;10.85;2.38;;;7.60;99.90;;;;;;5045403;28;20087;-75
2022/12/30 10:42:06;;;;;;;8.35;1.63;;;7.60;99.90;;;;;;5035115;28;20018;-75
2022/12/30 10:44:44;;;;;;;10.48;3.08;;;7.60;99.90;;;;;;5032568;28;20045;-75
2022/12/30 10:47:21;;;;;;;4.65;1.73;;;7.60;99.90;;;;;;5031113;28;20033;-74
2022/12/30 10:49:59;;;;;;;4.80;2.13;;;7.60;99.90;;;;;;5037450;28;20477;-75
2022/12/30 10:52:25;;;;;;;6.63;2.00;;;7.60;99.90;;;;;;5045926;28;20032;-76
2022/12/30 10:54:54;;;;;;;5.03;1.42;;;7.60;99.90;;;;;;5041157;28;20021;-77
2022/12/30 10:57:27;;;;;;;6.82;1.70;;;7.70;99.90;;;;;;5041568;28;20036;-75
2022/12/30 10:59:56;;;;;;;4.20;1.45;;;7.70;99.90;;;;;;5041178;28;20021;-76
2022/12/30 11:02:31;;;;;;;6.83;1.20;;;7.70;99.90;;;;;;5042826;28;20112;-76
2022/12/30 11:05:01;;;;;;;4.93;1.60;;;7.80;99.90;;;;;;5035429;28;20325;-75
2022/12/30 11:07:26;;;;;;;4.73;1.60;;;7.80;99.90;;;;;;5046929;28;20440;-75
2022/12/30 11:09:52;;;;;;;5.28;1.30;;;7.80;99.90;;;;;;5037779;28;20018;-77
2022/12/30 11:15:13;;;;;;;3.25;1.48;;;7.80;99.90;;;;;;5046963;28;20043;-75
2022/12/30 11:17:41;;;;;;;5.18;1.45;;;7.80;99.90;;;;;;5047289;28;20018;-76
2022/12/30 11:20:27;;;;;;;8.40;2.47;;;7.80;99.90;;;;;;5049340;28;20032;-76
2022/12/30 11:22:56;;;;;;;8.52;2.33;;;7.90;99.90;;;;;;5034867;28;20116;-76
2022/12/30 11:25:27;;;;;;;4.93;1.55;;;7.90;99.90;;;;;;5047486;28;20025;-77
2022/12/30 11:28:05;;;;;;;5.88;2.15;;;7.90;99.90;;;;;;5041714;28;20085;-76
2022/12/30 11:30:38;;;;;;;9.38;1.83;;;7.90;99.90;;;;;;5039124;28;20029;-76
2022/12/30 11:33:06;;;;;;;8.73;1.70;;;8.00;99.90;;;;;;5035510;28;20091;-77
2022/12/30 11:35:33;;;;;;;5.75;1.33;;;8.00;99.90;;;;;;5044314;28;20029;-76
2022/12/30 11:37:59;;;;;;;4.88;1.45;;;8.00;99.90;;;;;;5041874;28;20059;-75
2022/12/30 11:40:30;;;;;;;8.10;1.75;;;8.10;99.90;;;;;;5042448;28;20025;-74
2022/12/30 11:43:14;;;;;;;9.75;1.77;;;8.10;99.90;;;;;;5047497;28;20033;-76
2022/12/30 11:45:58;;;;;;;13.05;1.45;;;8.10;99.90;;;;;;5047264;28;20064;-75
2022/12/30 11:48:31;;;;;;;6.15;1.38;;;8.20;99.90;;;;;;5041985;28;20021;-77
2022/12/30 11:50:58;;;;;;;12.38;1.70;;;8.20;99.90;;;;;;5057447;28;20411;-76
2022/12/30 11:53:32;;;;;;;7.72;1.50;;;8.20;99.90;;;;;;5053065;28;20037;-77
2022/12/30 11:55:58;;;;;;;9.15;1.42;;;8.20;99.90;;;;;;5048164;28;20017;-76
2022/12/30 11:58:24;;;;;;;11.23;1.90;;;8.20;99.90;;;;;;5034393;28;20017;-75
2022/12/30 12:01:06;;;;;;;7.28;1.48;;;8.30;99.90;;;;;;5036684;28;20025;-75
2022/12/30 12:03:32;;;;;;;7.20;1.30;;;8.40;99.90;;;;;;5044107;28;20090;-77
2022/12/30 12:06:10;;;;;;;6.95;1.80;;;8.40;99.90;;;;;;5052180;28;20036;-78
2022/12/30 12:08:55;;;;;;;10.48;1.70;;;8.40;99.90;;;;;;5044900;28;20037;-76
2022/12/30 12:11:27;;;;;;;10.10;2.45;;;8.50;99.90;;;;;;5037815;28;20030;-76
2022/12/30 12:14:07;;;;;;;17.10;2.38;;;8.40;99.90;;;;;;5044993;28;20040;-76
2022/12/30 12:16:47;;;;;;;9.82;1.73;;;8.50;99.90;;;;;;5051646;28;20086;-76
2022/12/30 12:19:54;;;;;;;12.63;2.28;;;8.50;99.90;;;;;;5041046;28;20051;-74
2022/12/30 12:22:59;;;;;;;6.18;2.10;;;8.50;99.90;;;;;;5046183;28;20381;-75
2022/12/30 12:25:30;;;;;;;9.15;2.25;;;8.60;99.90;;;;;;5052044;28;20107;-72
2022/12/30 12:27:56;;;;;;;9.18;1.70;;;8.60;99.90;;;;;;5043848;28;20029;-74
2022/12/30 12:30:22;;;;;;;6.75;1.70;;;8.60;99.90;;;;;;5047607;28;20029;-74
2022/12/30 12:33:05;;;;;;;9.45;2.10;;;8.70;99.90;;;;;;5050502;28;20032;-76
2022/12/30 12:35:46;;;;;;;8.90;2.63;;;8.70;99.90;;;;;;5048487;28;20030;-76
2022/12/30 12:38:57;;;;;;;6.22;1.52;;;8.60;99.90;;;;;;5053977;28;20476;-75
2022/12/30 12:41:52;;;;;;;11.20;1.50;;;8.70;99.90;;;;;;5038078;28;20064;-75
2022/12/30 12:44:50;;;;;;;8.38;1.75;;;8.70;99.90;;;;;;5050741;28;20031;-76
2022/12/30 12:47:27;;;;;;;10.73;2.13;;;8.70;99.90;;;;;;5029517;28;20496;-76
2022/12/30 12:50:30;;;;;;;6.43;2.15;;;8.70;99.90;;;;;;5034540;28;20390;-75
2022/12/30 12:53:18;;;;;;;9.18;2.08;;;8.80;99.90;;;;;;5034786;28;20056;-75
2022/12/30 12:56:24;;;;;;;6.80;1.60;;;8.70;99.90;;;;;;5039517;28;20374;-76
2022/12/30 12:59:05;;;;;;;14.43;2.05;;;8.70;99.90;;;;;;5047545;28;20385;-75
2022/12/30 13:01:37;;;;;;;8.38;1.92;;;8.70;99.90;;;;;;5044671;28;20478;-75
2022/12/30 13:04:24;;;;;;;10.43;1.95;;;8.70;99.90;;;;;;5035152;28;20040;-76
2022/12/30 13:07:17;;;;;;;6.88;1.95;;;8.70;99.90;;;;;;5033353;28;20116;-76
2022/12/30 13:10:08;;;;;;;13.07;1.80;;;8.70;99.90;;;;;;5034076;28;20061;-76
2022/12/30 13:12:45;;;;;;;7.40;1.52;;;8.70;99.90;;;;;;5044781;28;20464;-75
2022/12/30 13:15:33;;;;;;;8.30;1.52;;;8.70;99.90;;;;;;5047596;28;20094;-75
2022/12/30 13:18:02;;;;;;;4.47;1.50;;;8.70;99.90;;;;;;5049556;28;20044;-74
2022/12/30 13:20:34;;;;;;;7.95;1.50;;;8.80;99.90;;;;;;5046711;28;20029;-73
2022/12/30 13:23:04;;;;;;;11.27;2.55;;;8.80;99.90;;;;;;5046250;28;20713;-73
2022/12/30 13:25:34;;;;;;;12.40;2.33;;;8.80;99.90;;;;;;5050081;28;20017;-74
2022/12/30 13:28:01;;;;;;;7.68;2.47;;;8.80;99.90;;;;;;5049821;28;20021;-74
2022/12/30 13:30:35;;;;;;;4.50;2.20;;;8.90;99.90;;;;;;5035988;28;20030;-74
2022/12/30 13:33:07;;;;;;;7.95;1.88;;;8.90;99.90;;;;;;5045505;28;20033;-72
2022/12/30 13:35:52;;;;;;;6.13;1.83;;;9.00;99.90;;;;;;5033203;28;20564;-77
2022/12/30 13:38:39;;;;;;;7.30;1.63;;;9.00;99.90;;;;;;5036664;28;20055;-76
2022/12/30 13:41:20;;;;;;;3.03;1.58;;;8.90;99.90;;;;;;5039106;28;20068;-75
2022/12/30 13:43:52;;;;;;;11.93;2.17;;;8.90;99.90;;;;;;5035499;28;20699;-77
2022/12/30 13:46:21;;;;;;;14.20;4.85;;;8.90;99.90;;;;;;5053181;28;20547;-76
2022/12/30 13:49:23;;;;;;;5.80;1.67;;;8.90;99.90;;;;;;5057390;28;20029;-78
2022/12/30 13:52:03;;;;;;;4.00;1.50;;;8.90;99.90;;;;;;5043372;28;20033;-75
2022/12/30 13:54:31;;;;;;;1.73;1.48;;;8.90;99.90;;;;;;5051179;28;20040;-76
2022/12/30 13:57:00;;;;;;;4.15;2.22;;;9.00;99.90;;;;;;5050329;28;20397;-76
2022/12/30 13:59:35;;;;;;;8.98;2.10;;;8.90;99.90;;;;;;5049499;28;20032;-74
2022/12/30 14:02:19;;;;;;;2.10;1.20;;;8.90;99.90;;;;;;5047521;28;20032;-75
2022/12/30 14:04:57;;;;;;;4.88;2.42;;;8.80;99.90;;;;;;5047520;28;20143;-76
2022/12/30 14:07:37;;;;;;;5.72;1.50;;;8.90;99.90;;;;;;5050289;28;20017;-76